Station: Parawa West

  Atmospheric Gas Attenuation - ITU Rec 676-11   --------------- db/100km ---------------
Date Time Temp RH % AH g/m3 Dew Point Wind Direction Speed kph Gust kph Barometer mB Rainfall Since 9am 24GHz 47GHz 76GHz 122GHz 134GHz 241GHz
15 02:00 8.1 99 8.24 7.9 30 35 1017.3 19.2 19.1 27.2 41.4 108.7 101.2 347.5
15 01:50 8.1 99 8.24 7.9 28 33 1017.2 19.2 19.1 27.2 41.4 108.7 101.2 347.5
15 01:40 8 99 8.19 7.8 35 39 1017.1 19.2 19.0 27.1 41.3 108.2 100.6 345.4
15 01:30 8.2 99 8.29 8 30 39 1017.1 19.2 19.2 27.2 41.6 109.1 101.8 349.4
15 01:20 8.1 99 8.24 7.9 30 33 1016.8 19.2 19.1 27.1 41.4 108.6 101.2 347.3
15 01:10 8.3 99 8.35 8.1 30 37 1016.8 19.2 19.3 27.3 41.8 109.6 102.5 351.9
15 01:00 8.3 99 8.35 8.1 30 33 1016.7 19 19.3 27.3 41.8 109.6 102.4 351.9
15 00:50 8.3 99 8.35 8.1 35 41 1016.7 19 19.3 27.3 41.8 109.6 102.4 351.9
15 00:40 8.3 99 8.35 8.1 24 32 1016.8 19 19.3 27.3 41.8 109.6 102.5 351.9
15 00:30 8.3 99 8.35 8.1 26 32 1016.9 19 19.3 27.3 41.8 109.6 102.5 351.9
15 00:20 8.3 99 8.35 8.1 26 35 1016.9 19 19.3 27.3 41.8 109.6 102.5 351.9
15 00:10 8.2 99 8.29 8 32 35 1016.8 18.8 19.2 27.2 41.6 109.0 101.7 349.4
15 00:00 8.3 99 8.35 8.1 32 37 1016.8 18.8 19.3 27.3 41.8 109.6 102.5 351.9
14 23:50 8.3 99 8.35 8.1 32 37 1016.8 18.8 19.3 27.3 41.8 109.6 102.5 351.9
14 23:40 8.2 99 8.29 8 30 37 1016.8 18.8 19.2 27.2 41.6 109.0 101.7 349.4
14 23:30 8.3 99 8.35 8.1 30 39 1016.8 18.8 19.3 27.3 41.8 109.6 102.5 351.9
14 23:20 8.3 99 8.35 8.1 28 32 1016.8 18.8 19.3 27.3 41.8 109.6 102.5 351.9
14 23:10 8.3 99 8.35 8.1 30 33 1016.7 18.8 19.3 27.3 41.8 109.6 102.4 351.9
14 23:00 8.2 99 8.29 8 30 33 1016.7 18.8 19.2 27.2 41.6 109.0 101.7 349.3
14 22:50 8.4 99 8.4 8.2 26 30 1016.7 18.8 19.4 27.3 41.9 110.0 103.0 353.9
14 22:40 8.4 99 8.4 8.2 28 32 1016.6 18.6 19.4 27.3 41.9 110.0 103.0 353.8
14 22:30 8.5 99 8.46 8.3 24 28 1016.6 18.6 19.5 27.4 42.1 110.6 103.7 356.4
14 22:20 8.6 99 8.51 8.4 20 24 1016.4 18.4 19.6 27.4 42.3 111.0 104.3 358.3
14 22:10 8.6 99 8.51 8.4 24 28 1016.3 18.4 19.6 27.4 42.3 111.0 104.3 358.3
14 22:00 8.5 99 8.46 8.4 26 35 1016.2 18.4 19.5 27.4 42.1 110.5 103.7 356.2
14 21:50 8.7 99 8.56 8.5 28 33 1016.1 18.4 19.8 27.5 42.4 111.4 104.8 360.2
14 21:40 8.7 99 8.56 8.5 22 28 1016.2 18.4 19.8 27.5 42.4 111.4 104.8 360.3
14 21:30 8.8 99 8.62 8.6 24 30 1016.1 18.2 19.9 27.6 42.6 111.9 105.5 362.8
14 21:20 8.8 99 8.62 8.6 30 35 1016 18.2 19.9 27.5 42.6 111.9 105.5 362.7
14 21:10 8.8 99 8.62 8.6 24 30 1016.1 18.2 19.9 27.6 42.6 111.9 105.5 362.8
14 21:00 8.9 99 8.68 8.7 32 37 1016.1 18 20.0 27.6 42.8 112.5 106.3 365.3
14 20:50 9.1 99 8.79 8.9 28 32 1016.1 18 20.2 27.8 43.2 113.4 107.5 369.8
14 20:40 9.1 99 8.79 8.9 28 32 1016 18 20.2 27.7 43.2 113.4 107.5 369.8
14 20:30 9.3 99 8.9 9.1 24 33 1016.1 18 20.5 27.9 43.6 114.4 108.8 374.3
14 20:20 9.4 99 8.96 9.2 20 24 1016.1 18 20.6 28.0 43.8 115.0 109.5 376.8
14 20:10 9.5 99 9.01 9.3 28 32 1015.8 17.8 20.7 28.0 43.9 115.4 110.1 378.7
14 20:00 9.4 99 8.96 9.2 20 24 1015.9 17.8 20.6 27.9 43.8 114.9 109.5 376.7
14 19:50 9.4 99 8.96 9.2 22 30 1015.8 17.8 20.6 27.9 43.8 114.9 109.5 376.7
14 19:40 9.6 99 9.07 9.4 20 24 1015.7 17.8 20.8 28.1 44.1 115.9 110.8 381.2
14 19:30 9.7 99 9.13 9.5 24 28 1015.5 17.8 20.9 28.1 44.3 116.4 111.5 383.6
14 19:20 9.8 99 9.19 9.6 24 28 1015.4 17.8 21.1 28.2 44.5 116.9 112.2 386.1
14 19:10 9.8 99 9.19 9.6 22 28 1015.4 17.8 21.1 28.2 44.5 116.9 112.2 386.1
14 19:00 9.9 99 9.25 9.7 20 24 1015.4 17.8 21.2 28.3 44.7 117.5 112.9 388.6
14 18:50 10.1 99 9.36 9.9 19 22 1015.3 17.8 21.4 28.4 45.1 118.4 114.1 393.0
14 18:40 9.9 99 9.25 9.7 20 22 1015.2 17.8 21.2 28.3 44.7 117.5 112.9 388.5
14 18:30 10.1 99 9.36 9.9 17 22 1015.1 17.8 21.4 28.4 45.1 118.4 114.1 393.0
14 18:20 10.2 99 9.42 10 15 17 1015 17.8 21.5 28.5 45.3 119.0 114.8 395.4
14 18:10 10.2 99 9.42 10 17 19 1014.9 17.8 21.5 28.4 45.3 118.9 114.8 395.4
14 18:00 10.3 99 9.48 10.1 17 19 1014.7 17.8 21.7 28.5 45.4 119.5 115.5 397.8
14 17:50 10.4 99 9.54 10.2 13 15 1014.6 17.8 21.8 28.6 45.6 120.0 116.2 400.3
14 17:40 10.5 99 9.6 10.3 9 15 1014.2 17.8 21.9 28.6 45.8 120.5 116.9 402.7
14 17:30 10.5 98 9.51 10.2 17 19 1014 17.8 21.7 28.5 45.4 119.4 115.6 398.1
14 17:20 10.7 98 9.63 10.4 17 19 1013.9 17.8 22.0 28.6 45.8 120.5 117.0 403.0
14 17:10 10.8 98 9.69 10.5 17 19 1013.8 17.8 22.1 28.7 46.0 121.0 117.7 405.5
14 17:00 10.9 98 9.75 10.6 13 15 1013.9 17.8 22.2 28.8 46.2 121.6 118.4 408.0
14 16:50 11 98 9.81 10.7 15 17 1013.6 17.8 22.3 28.8 46.4 122.1 119.1 410.4
14 16:40 11.1 98 9.87 10.8 9 13 1013.6 17.8 22.5 28.9 46.6 122.6 119.8 412.8
14 16:30 11.2 97 9.83 10.7 15 15 1013.5 17.8 22.4 28.8 46.4 122.0 119.0 410.3
14 16:20 11.4 97 9.96 10.9 9 11 1013.4 17.8 22.6 28.9 46.8 123.2 120.6 415.7
14 16:10 11.7 95 9.94 11 11 11 1013.3 17.8 22.6 28.8 46.6 122.4 119.8 413.0
14 16:00 11.8 95 10 11.1 9 9 1013.1 17.8 22.7 28.9 46.7 123.0 120.5 415.4
14 15:50 11.7 95 9.94 11 9 11 1013 17.8 22.6 28.8 46.5 122.4 119.8 412.9
14 15:40 11.6 95 9.88 10.9 9 11 1012.9 17.8 22.5 28.7 46.3 121.9 119.1 410.4
14 15:30 11.9 95 10.06 11.2 9 11 1012.9 17.8 22.8 28.9 46.9 123.5 121.2 417.8
14 15:20 11.9 95 10.06 11.1 9 11 1012.9 17.6 22.8 28.9 46.9 123.5 121.2 417.8
14 15:10 12.4 95 10.38 11.6 9 11 1012.7 17.6 23.5 29.3 48.0 126.4 124.9 431.0
14 15:00 13 93 10.55 11.9 9 11 1012.5 17.6 23.8 29.4 48.4 127.3 126.3 436.0
14 14:50 12.7 92 10.24 11.4 7 9 1012.5 17.6 23.2 29.0 47.2 124.2 122.4 422.3
14 14:40 12.7 93 10.35 11.6 2 4 1012.4 17.6 23.4 29.1 47.7 125.5 124.0 427.7
14 14:30 12.3 95 10.32 11.5 0 0 1012.4 17.6 23.4 29.2 47.8 125.8 124.2 428.4
14 14:20 12.2 98 10.58 11.9 0 0 1012.4 17.6 23.9 29.7 49.0 129.0 128.1 442.1
14 14:10 12.1 98 10.51 11.8 0 0 1012.3 17.6 23.8 29.6 48.8 128.3 127.2 439.1
14 14:00 11.8 99 10.42 11.6 0 0 1012.3 17.6 23.6 29.6 48.5 127.8 126.4 436.3
14 13:50 11.3 99 10.1 11.1 0 0 1012.4 17.6 22.9 29.2 47.4 124.8 122.6 422.9
14 13:40 11 98 9.81 10.7 2 4 1012.4 17.6 22.3 28.8 46.4 121.9 118.9 410.0
14 13:30 11.1 99 9.97 10.9 6 9 1012.3 17.6 22.7 29.0 47.0 123.6 121.1 417.4
14 13:20 10.9 99 9.85 10.7 0 0 1012.4 17.6 22.4 28.9 46.6 122.6 119.7 412.5
14 13:10 10.7 99 9.73 10.5 6 6 1012.3 17.4 22.2 28.7 46.2 121.5 118.3 407.5
14 13:00 10.6 99 9.66 10.4 4 7 1012.5 16.2 22.0 28.6 45.9 120.8 117.4 404.6
14 12:50 10.5 99 9.6 10.3 0 0 1012.8 10.2 21.9 28.6 45.8 120.3 116.7 402.2
14 12:40 10.6 99 9.66 10.4 7 9 1012.6 8 22.0 28.6 46.0 120.8 117.4 404.6
14 12:30 10.9 99 9.85 10.7 7 9 1012.8 3.8 22.4 28.9 46.6 122.6 119.7 412.6
14 12:20 10.9 99 9.85 10.7 15 15 1012.7 1.6 22.4 28.9 46.6 122.6 119.7 412.6
14 12:10 11.2 98 9.94 10.9 15 17 1012.9 0.4 22.6 29.0 46.8 123.2 120.5 415.6
14 12:00 12.9 99 11.16 12.7 9 15 1012.9 0.2 25.1 30.5 51.1 134.7 135.4 467.6
14 11:50 12.9 99 11.16 12.7 17 22 1012.9 0.2 25.1 30.5 51.1 134.7 135.4 467.6
14 11:40 13.3 99 11.44 13.1 11 11 1012.9 0 25.7 30.9 52.1 137.3 138.8 479.4
14 11:30 13.2 99 11.37 13 15 20 1012.9 0 25.6 30.8 51.9 136.7 137.9 476.5
14 11:20 12.9 99 11.16 12.7 19 26 1013 0 25.1 30.5 51.2 134.7 135.4 467.6
14 11:10 12.8 99 11.09 12.6 11 15 1013 0 25.0 30.4 50.9 134.1 134.5 464.7
14 11:00 12.8 99 11.09 12.6 11 17 1013 0 25.0 30.4 50.9 134.1 134.5 464.7
14 10:50 12.7 99 11.02 12.5 15 24 1013.1 0 24.9 30.4 50.7 133.4 133.7 461.7
14 10:40 12.6 99 10.95 12.4 13 19 1013.2 0 24.7 30.3 50.4 132.8 132.9 458.8
14 10:30 12.5 99 10.89 12.3 11 15 1013.3 0 24.6 30.2 50.2 132.3 132.2 456.4
14 10:20 12.5 99 10.89 12.3 13 19 1013.4 0 24.6 30.2 50.2 132.3 132.2 456.4
14 10:10 12.4 99 10.82 12.2 4 6 1013.4 0 24.4 30.1 50.0 131.6 131.3 453.4
14 10:00 12.3 99 10.75 12.1 7 15 1013.4 0 24.3 30.0 49.7 131.0 130.5 450.5
14 09:50 12.3 99 10.75 12.1 7 11 1013.5 0 24.3 30.0 49.7 131.0 130.5 450.5
14 09:40 12.2 99 10.68 12 7 9 1013.3 0 24.1 29.9 49.5 130.3 129.6 447.5
14 09:30 12.4 99 10.82 12.2 6 7 1013.3 0 24.4 30.1 50.0 131.6 131.3 453.4

Last Refresh: 15-Jun-2024 02:09:13

Bureau of Meteorology